Osgood, Ohio
Current Conditions -  °F | °C
As of 2:15 AM on Sunday 23 Nov 2014 (Local Time) from KVES Reporting Station
Light Rain Light Rain  
Wind Chill: 45°   Ceiling: 6000
Heat Index: 45°   Visibility: 10mi
Dew Point: 41°   Wind: 0mph
Humidity: 87%   Direction: NA
Pressure: 30.02"   Gusts: NA
Location:  40.34°N, 84.5°W
Report Text: KVES 230715Z AUTO 00000KT 10SM -RA SCT048 OVC060 07/05 A3002 RMK AO2
Loading
Personal Weather Stations






























Interactive Weather Map New forecast layout! Learn more

10-Day Weather Forecast

Advertisements
Track Severe Weather on mobile